sensor_id;sensor_type;location;lat;lon;timestamp;P1;durP1;ratioP1;P2;durP2;ratioP2
18905;SDS011;9585;51.018;4.282;2022-12-07T00:00:55;9.40;;;8.40;;
18905;SDS011;9585;51.018;4.282;2022-12-07T00:03:31;10.93;;;8.53;;
18905;SDS011;9585;51.018;4.282;2022-12-07T00:05:59;10.88;;;8.32;;
18905;SDS011;9585;51.018;4.282;2022-12-07T00:08:28;11.77;;;8.80;;
18905;SDS011;9585;51.018;4.282;2022-12-07T00:11:00;10.75;;;8.63;;
18905;SDS011;9585;51.018;4.282;2022-12-07T00:13:28;10.47;;;8.63;;
18905;SDS011;9585;51.018;4.282;2022-12-07T00:15:56;9.57;;;8.10;;
18905;SDS011;9585;51.018;4.282;2022-12-07T00:18:27;10.57;;;8.73;;
18905;SDS011;9585;51.018;4.282;2022-12-07T00:20:58;13.60;;;9.57;;
18905;SDS011;9585;51.018;4.282;2022-12-07T00:23:29;11.33;;;9.10;;
18905;SDS011;9585;51.018;4.282;2022-12-07T00:26:02;11.37;;;9.07;;
18905;SDS011;9585;51.018;4.282;2022-12-07T00:28:30;10.73;;;8.87;;
18905;SDS011;9585;51.018;4.282;2022-12-07T00:31:02;13.23;;;9.83;;
18905;SDS011;9585;51.018;4.282;2022-12-07T00:33:30;13.03;;;10.00;;
18905;SDS011;9585;51.018;4.282;2022-12-07T00:35:58;12.73;;;9.80;;
18905;SDS011;9585;51.018;4.282;2022-12-07T00:38:29;11.67;;;9.83;;
18905;SDS011;9585;51.018;4.282;2022-12-07T00:40:57;10.77;;;8.80;;
18905;SDS011;9585;51.018;4.282;2022-12-07T00:43:27;10.60;;;9.00;;
18905;SDS011;9585;51.018;4.282;2022-12-07T00:45:54;10.33;;;9.00;;
18905;SDS011;9585;51.018;4.282;2022-12-07T00:48:22;10.07;;;8.40;;
18905;SDS011;9585;51.018;4.282;2022-12-07T00:50:50;12.37;;;9.53;;
18905;SDS011;9585;51.018;4.282;2022-12-07T00:53:17;10.97;;;8.77;;
18905;SDS011;9585;51.018;4.282;2022-12-07T00:55:46;10.33;;;8.50;;
18905;SDS011;9585;51.018;4.282;2022-12-07T00:58:14;11.50;;;9.27;;
18905;SDS011;9585;51.018;4.282;2022-12-07T01:00:42;14.30;;;9.97;;
18905;SDS011;9585;51.018;4.282;2022-12-07T01:03:10;13.63;;;9.63;;
18905;SDS011;9585;51.018;4.282;2022-12-07T01:05:38;12.47;;;9.90;;
18905;SDS011;9585;51.018;4.282;2022-12-07T01:08:06;12.60;;;9.77;;
18905;SDS011;9585;51.018;4.282;2022-12-07T01:10:35;13.03;;;9.20;;
18905;SDS011;9585;51.018;4.282;2022-12-07T01:13:03;14.47;;;10.53;;
18905;SDS011;9585;51.018;4.282;2022-12-07T01:15:31;17.10;;;11.07;;
18905;SDS011;9585;51.018;4.282;2022-12-07T01:17:58;14.73;;;11.50;;
18905;SDS011;9585;51.018;4.282;2022-12-07T01:20:25;18.53;;;12.30;;
18905;SDS011;9585;51.018;4.282;2022-12-07T01:22:53;17.77;;;11.93;;
18905;SDS011;9585;51.018;4.282;2022-12-07T01:25:20;17.70;;;12.50;;
18905;SDS011;9585;51.018;4.282;2022-12-07T01:27:47;13.77;;;11.20;;
18905;SDS011;9585;51.018;4.282;2022-12-07T01:30:16;15.67;;;11.27;;
18905;SDS011;9585;51.018;4.282;2022-12-07T01:32:51;15.23;;;11.87;;
18905;SDS011;9585;51.018;4.282;2022-12-07T01:35:18;15.40;;;11.73;;
18905;SDS011;9585;51.018;4.282;2022-12-07T01:37:45;14.53;;;11.23;;
18905;SDS011;9585;51.018;4.282;2022-12-07T01:40:13;15.73;;;10.43;;
18905;SDS011;9585;51.018;4.282;2022-12-07T01:42:40;15.03;;;11.33;;
18905;SDS011;9585;51.018;4.282;2022-12-07T01:48:06;15.83;;;10.57;;
18905;SDS011;9585;51.018;4.282;2022-12-07T01:50:36;13.87;;;11.30;;
18905;SDS011;9585;51.018;4.282;2022-12-07T01:53:06;15.33;;;11.40;;
18905;SDS011;9585;51.018;4.282;2022-12-07T01:55:37;14.07;;;11.10;;
18905;SDS011;9585;51.018;4.282;2022-12-07T01:58:27;17.20;;;10.60;;
18905;SDS011;9585;51.018;4.282;2022-12-07T02:00:56;13.85;;;10.43;;
18905;SDS011;9585;51.018;4.282;2022-12-07T02:03:24;16.55;;;10.88;;
18905;SDS011;9585;51.018;4.282;2022-12-07T02:05:55;15.07;;;9.65;;
18905;SDS011;9585;51.018;4.282;2022-12-07T02:08:25;12.38;;;9.90;;
18905;SDS011;9585;51.018;4.282;2022-12-07T02:10:53;14.10;;;10.45;;
18905;SDS011;9585;51.018;4.282;2022-12-07T02:13:21;13.60;;;10.00;;
18905;SDS011;9585;51.018;4.282;2022-12-07T02:16:02;10.77;;;8.52;;
18905;SDS011;9585;51.018;4.282;2022-12-07T02:18:43;13.43;;;9.82;;
18905;SDS011;9585;51.018;4.282;2022-12-07T02:21:20;12.38;;;9.50;;
18905;SDS011;9585;51.018;4.282;2022-12-07T02:24:03;14.20;;;9.68;;
18905;SDS011;9585;51.018;4.282;2022-12-07T02:27:11;13.05;;;9.02;;
18905;SDS011;9585;51.018;4.282;2022-12-07T02:29:57;10.38;;;8.27;;
18905;SDS011;9585;51.018;4.282;2022-12-07T02:32:27;10.20;;;8.40;;
18905;SDS011;9585;51.018;4.282;2022-12-07T02:35:09;11.88;;;8.50;;
18905;SDS011;9585;51.018;4.282;2022-12-07T02:37:42;13.00;;;8.75;;
18905;SDS011;9585;51.018;4.282;2022-12-07T02:40:26;12.70;;;8.70;;
18905;SDS011;9585;51.018;4.282;2022-12-07T02:42:58;11.30;;;8.98;;
18905;SDS011;9585;51.018;4.282;2022-12-07T02:45:32;14.07;;;9.27;;
18905;SDS011;9585;51.018;4.282;2022-12-07T02:48:04;13.30;;;9.65;;
18905;SDS011;9585;51.018;4.282;2022-12-07T02:50:33;14.68;;;9.73;;
18905;SDS011;9585;51.018;4.282;2022-12-07T02:53:00;11.82;;;8.75;;
18905;SDS011;9585;51.018;4.282;2022-12-07T02:55:28;14.70;;;8.77;;
18905;SDS011;9585;51.018;4.282;2022-12-07T02:58:11;14.65;;;9.05;;
18905;SDS011;9585;51.018;4.282;2022-12-07T03:00:52;12.70;;;8.82;;
18905;SDS011;9585;51.018;4.282;2022-12-07T03:03:25;11.57;;;8.57;;
18905;SDS011;9585;51.018;4.282;2022-12-07T03:05:59;13.35;;;9.10;;
18905;SDS011;9585;51.018;4.282;2022-12-07T03:08:39;13.50;;;8.55;;
18905;SDS011;9585;51.018;4.282;2022-12-07T03:11:14;12.95;;;8.30;;
18905;SDS011;9585;51.018;4.282;2022-12-07T03:13:48;9.57;;;7.73;;
18905;SDS011;9585;51.018;4.282;2022-12-07T03:16:23;12.60;;;8.37;;
18905;SDS011;9585;51.018;4.282;2022-12-07T03:18:56;10.53;;;7.57;;
18905;SDS011;9585;51.018;4.282;2022-12-07T03:21:27;11.87;;;7.33;;
18905;SDS011;9585;51.018;4.282;2022-12-07T03:23:58;10.60;;;7.10;;
18905;SDS011;9585;51.018;4.282;2022-12-07T03:26:30;11.50;;;7.33;;
18905;SDS011;9585;51.018;4.282;2022-12-07T03:29:01;11.93;;;7.17;;
18905;SDS011;9585;51.018;4.282;2022-12-07T03:31:34;9.60;;;6.47;;
18905;SDS011;9585;51.018;4.282;2022-12-07T03:34:06;9.77;;;6.77;;
18905;SDS011;9585;51.018;4.282;2022-12-07T03:36:39;8.87;;;6.73;;
18905;SDS011;9585;51.018;4.282;2022-12-07T03:39:12;9.03;;;6.47;;
18905;SDS011;9585;51.018;4.282;2022-12-07T03:41:46;8.40;;;6.20;;
18905;SDS011;9585;51.018;4.282;2022-12-07T03:44:14;9.47;;;5.90;;
18905;SDS011;9585;51.018;4.282;2022-12-07T03:46:44;5.80;;;5.20;;
18905;SDS011;9585;51.018;4.282;2022-12-07T03:49:20;7.57;;;5.60;;
18905;SDS011;9585;51.018;4.282;2022-12-07T03:51:51;7.77;;;5.17;;
18905;SDS011;9585;51.018;4.282;2022-12-07T03:54:24;6.43;;;5.10;;
18905;SDS011;9585;51.018;4.282;2022-12-07T03:56:55;8.47;;;5.00;;
18905;SDS011;9585;51.018;4.282;2022-12-07T03:59:24;6.07;;;5.10;;
18905;SDS011;9585;51.018;4.282;2022-12-07T04:01:55;5.93;;;4.53;;
18905;SDS011;9585;51.018;4.282;2022-12-07T04:04:23;5.87;;;4.40;;
18905;SDS011;9585;51.018;4.282;2022-12-07T04:06:51;7.70;;;5.97;;
18905;SDS011;9585;51.018;4.282;2022-12-07T04:09:19;11.47;;;7.03;;
18905;SDS011;9585;51.018;4.282;2022-12-07T04:11:47;10.33;;;7.17;;
18905;SDS011;9585;51.018;4.282;2022-12-07T04:14:15;12.60;;;7.07;;
18905;SDS011;9585;51.018;4.282;2022-12-07T04:16:46;9.43;;;6.73;;
18905;SDS011;9585;51.018;4.282;2022-12-07T04:19:16;10.27;;;7.10;;
18905;SDS011;9585;51.018;4.282;2022-12-07T04:21:44;9.77;;;6.73;;
18905;SDS011;9585;51.018;4.282;2022-12-07T04:24:13;11.33;;;6.47;;
18905;SDS011;9585;51.018;4.282;2022-12-07T04:26:41;9.80;;;6.33;;
18905;SDS011;9585;51.018;4.282;2022-12-07T04:29:09;8.43;;;5.63;;
18905;SDS011;9585;51.018;4.282;2022-12-07T04:31:37;10.10;;;5.87;;
18905;SDS011;9585;51.018;4.282;2022-12-07T04:34:05;7.70;;;5.30;;
18905;SDS011;9585;51.018;4.282;2022-12-07T04:36:35;6.40;;;5.20;;
18905;SDS011;9585;51.018;4.282;2022-12-07T04:39:03;6.33;;;5.50;;
18905;SDS011;9585;51.018;4.282;2022-12-07T04:41:31;6.80;;;4.70;;
18905;SDS011;9585;51.018;4.282;2022-12-07T04:43:59;7.57;;;4.90;;
18905;SDS011;9585;51.018;4.282;2022-12-07T04:46:29;4.93;;;4.30;;
18905;SDS011;9585;51.018;4.282;2022-12-07T04:48:57;15.87;;;5.43;;
18905;SDS011;9585;51.018;4.282;2022-12-07T04:51:26;6.80;;;5.03;;
18905;SDS011;9585;51.018;4.282;2022-12-07T04:53:56;5.87;;;4.80;;
18905;SDS011;9585;51.018;4.282;2022-12-07T04:56:24;6.27;;;5.40;;
18905;SDS011;9585;51.018;4.282;2022-12-07T04:58:51;9.00;;;5.43;;
18905;SDS011;9585;51.018;4.282;2022-12-07T05:01:20;7.63;;;5.17;;
18905;SDS011;9585;51.018;4.282;2022-12-07T05:03:48;6.70;;;5.27;;
18905;SDS011;9585;51.018;4.282;2022-12-07T05:06:16;7.10;;;5.17;;
18905;SDS011;9585;51.018;4.282;2022-12-07T05:08:43;6.47;;;4.90;;
18905;SDS011;9585;51.018;4.282;2022-12-07T05:11:13;7.07;;;4.88;;
18905;SDS011;9585;51.018;4.282;2022-12-07T05:14:01;11.13;;;5.83;;
18905;SDS011;9585;51.018;4.282;2022-12-07T05:16:29;8.97;;;5.93;;
18905;SDS011;9585;51.018;4.282;2022-12-07T05:18:57;9.43;;;6.43;;
18905;SDS011;9585;51.018;4.282;2022-12-07T05:21:24;8.40;;;6.13;;
18905;SDS011;9585;51.018;4.282;2022-12-07T05:23:52;7.83;;;6.40;;
18905;SDS011;9585;51.018;4.282;2022-12-07T05:26:21;9.38;;;6.97;;
18905;SDS011;9585;51.018;4.282;2022-12-07T05:28:50;11.43;;;7.70;;
18905;SDS011;9585;51.018;4.282;2022-12-07T05:31:18;15.57;;;8.60;;
18905;SDS011;9585;51.018;4.282;2022-12-07T05:33:45;12.30;;;7.60;;
18905;SDS011;9585;51.018;4.282;2022-12-07T05:36:13;7.90;;;6.32;;
18905;SDS011;9585;51.018;4.282;2022-12-07T05:38:41;9.63;;;6.80;;
18905;SDS011;9585;51.018;4.282;2022-12-07T05:41:09;13.70;;;8.07;;
18905;SDS011;9585;51.018;4.282;2022-12-07T05:43:55;12.95;;;7.90;;
18905;SDS011;9585;51.018;4.282;2022-12-07T05:46:23;15.33;;;9.20;;
18905;SDS011;9585;51.018;4.282;2022-12-07T05:48:51;11.50;;;7.70;;
18905;SDS011;9585;51.018;4.282;2022-12-07T05:51:18;12.53;;;8.70;;
18905;SDS011;9585;51.018;4.282;2022-12-07T05:53:45;14.47;;;7.80;;
18905;SDS011;9585;51.018;4.282;2022-12-07T05:56:13;9.80;;;7.43;;
18905;SDS011;9585;51.018;4.282;2022-12-07T05:58:40;8.82;;;6.82;;
18905;SDS011;9585;51.018;4.282;2022-12-07T06:01:27;10.60;;;7.60;;
18905;SDS011;9585;51.018;4.282;2022-12-07T06:03:54;12.03;;;7.93;;
18905;SDS011;9585;51.018;4.282;2022-12-07T06:06:22;12.27;;;8.13;;
18905;SDS011;9585;51.018;4.282;2022-12-07T06:08:49;9.23;;;6.70;;
18905;SDS011;9585;51.018;4.282;2022-12-07T06:11:16;9.53;;;6.53;;
18905;SDS011;9585;51.018;4.282;2022-12-07T06:14:01;6.63;;;5.50;;
18905;SDS011;9585;51.018;4.282;2022-12-07T06:16:31;6.30;;;5.10;;
18905;SDS011;9585;51.018;4.282;2022-12-07T06:18:58;6.68;;;5.75;;
18905;SDS011;9585;51.018;4.282;2022-12-07T06:21:26;8.17;;;6.73;;
18905;SDS011;9585;51.018;4.282;2022-12-07T06:23:53;8.10;;;6.50;;
18905;SDS011;9585;51.018;4.282;2022-12-07T06:26:21;9.70;;;7.87;;
18905;SDS011;9585;51.018;4.282;2022-12-07T06:28:49;10.90;;;7.73;;
18905;SDS011;9585;51.018;4.282;2022-12-07T06:31:16;10.10;;;7.43;;
18905;SDS011;9585;51.018;4.282;2022-12-07T06:33:45;9.93;;;7.30;;
18905;SDS011;9585;51.018;4.282;2022-12-07T06:36:12;10.60;;;7.57;;
18905;SDS011;9585;51.018;4.282;2022-12-07T06:38:41;9.70;;;7.13;;
18905;SDS011;9585;51.018;4.282;2022-12-07T06:41:08;6.90;;;6.20;;
18905;SDS011;9585;51.018;4.282;2022-12-07T06:43:36;10.00;;;6.68;;
18905;SDS011;9585;51.018;4.282;2022-12-07T06:46:04;8.73;;;6.57;;
18905;SDS011;9585;51.018;4.282;2022-12-07T06:48:31;8.17;;;5.90;;
18905;SDS011;9585;51.018;4.282;2022-12-07T06:51:00;6.83;;;5.60;;
18905;SDS011;9585;51.018;4.282;2022-12-07T06:53:28;6.20;;;5.53;;
18905;SDS011;9585;51.018;4.282;2022-12-07T06:56:07;7.57;;;6.20;;
18905;SDS011;9585;51.018;4.282;2022-12-07T06:58:35;7.13;;;6.10;;
18905;SDS011;9585;51.018;4.282;2022-12-07T07:01:02;8.50;;;6.07;;
18905;SDS011;9585;51.018;4.282;2022-12-07T07:03:34;7.67;;;5.77;;
18905;SDS011;9585;51.018;4.282;2022-12-07T07:06:03;6.60;;;5.43;;
18905;SDS011;9585;51.018;4.282;2022-12-07T07:08:32;7.77;;;6.23;;
18905;SDS011;9585;51.018;4.282;2022-12-07T07:11:00;7.53;;;5.90;;
18905;SDS011;9585;51.018;4.282;2022-12-07T07:13:27;9.10;;;6.87;;
18905;SDS011;9585;51.018;4.282;2022-12-07T07:15:54;8.43;;;6.20;;
18905;SDS011;9585;51.018;4.282;2022-12-07T07:18:22;7.97;;;6.10;;
18905;SDS011;9585;51.018;4.282;2022-12-07T07:20:50;7.13;;;5.60;;
18905;SDS011;9585;51.018;4.282;2022-12-07T07:23:20;7.23;;;5.57;;
18905;SDS011;9585;51.018;4.282;2022-12-07T07:25:48;6.13;;;5.50;;
18905;SDS011;9585;51.018;4.282;2022-12-07T07:28:15;6.30;;;5.23;;
18905;SDS011;9585;51.018;4.282;2022-12-07T07:30:43;6.50;;;5.13;;
18905;SDS011;9585;51.018;4.282;2022-12-07T07:33:11;7.27;;;5.13;;
18905;SDS011;9585;51.018;4.282;2022-12-07T07:35:38;10.00;;;5.90;;
18905;SDS011;9585;51.018;4.282;2022-12-07T07:38:06;8.03;;;5.50;;
18905;SDS011;9585;51.018;4.282;2022-12-07T07:40:35;9.10;;;6.27;;
18905;SDS011;9585;51.018;4.282;2022-12-07T07:43:03;8.70;;;6.27;;
18905;SDS011;9585;51.018;4.282;2022-12-07T07:45:30;8.17;;;5.80;;
18905;SDS011;9585;51.018;4.282;2022-12-07T07:47:58;7.37;;;5.80;;
18905;SDS011;9585;51.018;4.282;2022-12-07T07:50:25;6.80;;;5.37;;
18905;SDS011;9585;51.018;4.282;2022-12-07T07:52:53;7.30;;;5.90;;
18905;SDS011;9585;51.018;4.282;2022-12-07T07:55:20;7.03;;;5.40;;
18905;SDS011;9585;51.018;4.282;2022-12-07T07:57:49;6.77;;;5.70;;
18905;SDS011;9585;51.018;4.282;2022-12-07T08:00:17;6.00;;;5.27;;
18905;SDS011;9585;51.018;4.282;2022-12-07T08:02:45;8.97;;;5.83;;
18905;SDS011;9585;51.018;4.282;2022-12-07T08:05:12;6.37;;;5.30;;
18905;SDS011;9585;51.018;4.282;2022-12-07T08:07:40;9.40;;;6.43;;
18905;SDS011;9585;51.018;4.282;2022-12-07T08:10:08;8.67;;;6.23;;
18905;SDS011;9585;51.018;4.282;2022-12-07T08:12:38;11.53;;;7.57;;
18905;SDS011;9585;51.018;4.282;2022-12-07T08:15:27;6.50;;;5.53;;
18905;SDS011;9585;51.018;4.282;2022-12-07T08:17:56;7.67;;;5.63;;
18905;SDS011;9585;51.018;4.282;2022-12-07T08:20:23;7.13;;;5.10;;
18905;SDS011;9585;51.018;4.282;2022-12-07T08:22:51;9.40;;;6.77;;
18905;SDS011;9585;51.018;4.282;2022-12-07T08:25:18;9.10;;;6.37;;
18905;SDS011;9585;51.018;4.282;2022-12-07T08:27:47;7.33;;;6.07;;
18905;SDS011;9585;51.018;4.282;2022-12-07T08:30:15;11.53;;;7.70;;
18905;SDS011;9585;51.018;4.282;2022-12-07T08:32:45;12.10;;;7.97;;
18905;SDS011;9585;51.018;4.282;2022-12-07T08:35:13;9.53;;;7.40;;
18905;SDS011;9585;51.018;4.282;2022-12-07T08:37:41;12.23;;;7.17;;
18905;SDS011;9585;51.018;4.282;2022-12-07T08:40:09;12.80;;;7.10;;
18905;SDS011;9585;51.018;4.282;2022-12-07T08:42:40;11.48;;;7.10;;
18905;SDS011;9585;51.018;4.282;2022-12-07T08:45:10;11.63;;;6.73;;
18905;SDS011;9585;51.018;4.282;2022-12-07T08:47:40;9.48;;;6.38;;
18905;SDS011;9585;51.018;4.282;2022-12-07T08:50:13;6.82;;;5.05;;
18905;SDS011;9585;51.018;4.282;2022-12-07T08:52:40;8.40;;;5.60;;
18905;SDS011;9585;51.018;4.282;2022-12-07T08:55:09;8.15;;;5.57;;
18905;SDS011;9585;51.018;4.282;2022-12-07T08:57:37;9.07;;;6.05;;
18905;SDS011;9585;51.018;4.282;2022-12-07T09:00:06;9.38;;;6.30;;
18905;SDS011;9585;51.018;4.282;2022-12-07T09:02:34;10.90;;;6.00;;
18905;SDS011;9585;51.018;4.282;2022-12-07T09:05:02;11.43;;;6.63;;
18905;SDS011;9585;51.018;4.282;2022-12-07T09:07:31;9.63;;;6.10;;
18905;SDS011;9585;51.018;4.282;2022-12-07T09:10:00;7.53;;;5.95;;
18905;SDS011;9585;51.018;4.282;2022-12-07T09:12:28;9.90;;;6.30;;
18905;SDS011;9585;51.018;4.282;2022-12-07T09:14:56;11.00;;;6.15;;
18905;SDS011;9585;51.018;4.282;2022-12-07T09:17:23;9.50;;;6.07;;
18905;SDS011;9585;51.018;4.282;2022-12-07T09:19:51;8.60;;;5.43;;
18905;SDS011;9585;51.018;4.282;2022-12-07T09:22:18;11.35;;;6.20;;
18905;SDS011;9585;51.018;4.282;2022-12-07T09:24:47;9.07;;;5.85;;
18905;SDS011;9585;51.018;4.282;2022-12-07T09:27:14;8.15;;;5.90;;
18905;SDS011;9585;51.018;4.282;2022-12-07T09:29:42;10.52;;;6.00;;
18905;SDS011;9585;51.018;4.282;2022-12-07T09:32:10;9.18;;;6.30;;
18905;SDS011;9585;51.018;4.282;2022-12-07T09:34:38;11.80;;;6.93;;
18905;SDS011;9585;51.018;4.282;2022-12-07T09:37:05;8.98;;;6.43;;
18905;SDS011;9585;51.018;4.282;2022-12-07T09:39:33;9.93;;;6.32;;
18905;SDS011;9585;51.018;4.282;2022-12-07T09:42:03;10.07;;;6.22;;
18905;SDS011;9585;51.018;4.282;2022-12-07T09:44:32;10.32;;;6.85;;
18905;SDS011;9585;51.018;4.282;2022-12-07T09:47:01;12.20;;;7.10;;
18905;SDS011;9585;51.018;4.282;2022-12-07T09:49:30;10.00;;;6.72;;
18905;SDS011;9585;51.018;4.282;2022-12-07T09:51:59;10.48;;;6.50;;
18905;SDS011;9585;51.018;4.282;2022-12-07T09:54:29;10.23;;;6.45;;
18905;SDS011;9585;51.018;4.282;2022-12-07T09:56:57;10.75;;;6.25;;
18905;SDS011;9585;51.018;4.282;2022-12-07T09:59:27;8.60;;;5.85;;
18905;SDS011;9585;51.018;4.282;2022-12-07T10:01:55;8.80;;;5.22;;
18905;SDS011;9585;51.018;4.282;2022-12-07T10:04:23;11.50;;;5.80;;
18905;SDS011;9585;51.018;4.282;2022-12-07T10:06:54;6.93;;;5.32;;
18905;SDS011;9585;51.018;4.282;2022-12-07T10:09:36;8.52;;;4.93;;
18905;SDS011;9585;51.018;4.282;2022-12-07T10:12:04;8.07;;;4.75;;
18905;SDS011;9585;51.018;4.282;2022-12-07T10:14:38;9.32;;;5.45;;
18905;SDS011;9585;51.018;4.282;2022-12-07T10:23:02;7.05;;;4.70;;
18905;SDS011;9585;51.018;4.282;2022-12-07T10:25:32;6.55;;;5.40;;
18905;SDS011;9585;51.018;4.282;2022-12-07T10:28:01;10.27;;;5.60;;
18905;SDS011;9585;51.018;4.282;2022-12-07T10:30:47;6.97;;;4.95;;
18905;SDS011;9585;51.018;4.282;2022-12-07T10:33:29;7.97;;;5.05;;
18905;SDS011;9585;51.018;4.282;2022-12-07T10:35:58;7.53;;;4.90;;
18905;SDS011;9585;51.018;4.282;2022-12-07T10:38:27;5.43;;;4.68;;
18905;SDS011;9585;51.018;4.282;2022-12-07T10:41:04;13.85;;;5.18;;
18905;SDS011;9585;51.018;4.282;2022-12-07T10:43:35;8.25;;;5.25;;
18905;SDS011;9585;51.018;4.282;2022-12-07T10:49:10;6.35;;;4.75;;
18905;SDS011;9585;51.018;4.282;2022-12-07T10:52:01;8.60;;;4.43;;
18905;SDS011;9585;51.018;4.282;2022-12-07T10:54:40;7.07;;;4.68;;
18905;SDS011;9585;51.018;4.282;2022-12-07T10:57:25;6.75;;;4.32;;
18905;SDS011;9585;51.018;4.282;2022-12-07T11:00:19;6.82;;;3.75;;
18905;SDS011;9585;51.018;4.282;2022-12-07T11:03:12;7.30;;;3.95;;
18905;SDS011;9585;51.018;4.282;2022-12-07T11:05:59;7.00;;;3.78;;
18905;SDS011;9585;51.018;4.282;2022-12-07T11:08:44;7.00;;;3.63;;
18905;SDS011;9585;51.018;4.282;2022-12-07T11:11:23;6.07;;;3.67;;
18905;SDS011;9585;51.018;4.282;2022-12-07T11:14:01;6.20;;;3.75;;
18905;SDS011;9585;51.018;4.282;2022-12-07T11:16:52;10.23;;;4.13;;
18905;SDS011;9585;51.018;4.282;2022-12-07T11:19:32;8.90;;;3.75;;
18905;SDS011;9585;51.018;4.282;2022-12-07T11:22:18;6.65;;;3.72;;
18905;SDS011;9585;51.018;4.282;2022-12-07T11:25:18;7.95;;;3.55;;
18905;SDS011;9585;51.018;4.282;2022-12-07T11:27:56;7.93;;;4.00;;
18905;SDS011;9585;51.018;4.282;2022-12-07T11:30:41;7.63;;;3.80;;
18905;SDS011;9585;51.018;4.282;2022-12-07T11:33:26;6.15;;;3.78;;
18905;SDS011;9585;51.018;4.282;2022-12-07T11:36:12;7.97;;;3.53;;
18905;SDS011;9585;51.018;4.282;2022-12-07T11:46:24;3.08;;;2.45;;
18905;SDS011;9585;51.018;4.282;2022-12-07T11:48:58;4.50;;;3.10;;
18905;SDS011;9585;51.018;4.282;2022-12-07T11:51:33;5.60;;;3.30;;
18905;SDS011;9585;51.018;4.282;2022-12-07T11:59:07;5.32;;;2.65;;
18905;SDS011;9585;51.018;4.282;2022-12-07T12:01:47;4.43;;;2.50;;
18905;SDS011;9585;51.018;4.282;2022-12-07T12:04:40;5.10;;;2.50;;
18905;SDS011;9585;51.018;4.282;2022-12-07T12:07:19;4.78;;;2.55;;
18905;SDS011;9585;51.018;4.282;2022-12-07T12:09:53;5.30;;;2.63;;
18905;SDS011;9585;51.018;4.282;2022-12-07T12:12:33;4.25;;;2.38;;
18905;SDS011;9585;51.018;4.282;2022-12-07T12:15:18;3.80;;;2.38;;
18905;SDS011;9585;51.018;4.282;2022-12-07T12:21:01;3.92;;;2.30;;
18905;SDS011;9585;51.018;4.282;2022-12-07T12:23:35;4.22;;;2.20;;
18905;SDS011;9585;51.018;4.282;2022-12-07T12:26:07;6.13;;;2.53;;
18905;SDS011;9585;51.018;4.282;2022-12-07T12:28:48;5.82;;;2.10;;
18905;SDS011;9585;51.018;4.282;2022-12-07T12:31:31;2.95;;;1.60;;
18905;SDS011;9585;51.018;4.282;2022-12-07T12:34:29;4.43;;;1.90;;
18905;SDS011;9585;51.018;4.282;2022-12-07T12:55:41;3.47;;;1.58;;
18905;SDS011;9585;51.018;4.282;2022-12-07T12:58:50;4.93;;;2.00;;
18905;SDS011;9585;51.018;4.282;2022-12-07T13:01:54;4.32;;;1.88;;
18905;SDS011;9585;51.018;4.282;2022-12-07T13:04:48;5.05;;;1.77;;
18905;SDS011;9585;51.018;4.282;2022-12-07T13:18:57;3.10;;;1.67;;
18905;SDS011;9585;51.018;4.282;2022-12-07T13:21:43;3.17;;;1.98;;
18905;SDS011;9585;51.018;4.282;2022-12-07T13:24:13;3.17;;;1.67;;
18905;SDS011;9585;51.018;4.282;2022-12-07T13:26:43;5.30;;;1.77;;
18905;SDS011;9585;51.018;4.282;2022-12-07T13:29:11;4.22;;;1.90;;
18905;SDS011;9585;51.018;4.282;2022-12-07T13:31:41;5.85;;;1.50;;
18905;SDS011;9585;51.018;4.282;2022-12-07T13:34:30;2.90;;;1.48;;
18905;SDS011;9585;51.018;4.282;2022-12-07T13:36:58;1.38;;;1.27;;
18905;SDS011;9585;51.018;4.282;2022-12-07T13:39:28;1.77;;;1.35;;
18905;SDS011;9585;51.018;4.282;2022-12-07T13:41:57;3.05;;;1.45;;
18905;SDS011;9585;51.018;4.282;2022-12-07T13:44:27;2.80;;;1.80;;
18905;SDS011;9585;51.018;4.282;2022-12-07T13:46:57;4.45;;;2.05;;
18905;SDS011;9585;51.018;4.282;2022-12-07T13:49:32;2.83;;;1.90;;
18905;SDS011;9585;51.018;4.282;2022-12-07T13:52:08;2.42;;;1.88;;
18905;SDS011;9585;51.018;4.282;2022-12-07T13:54:45;1.88;;;1.60;;
18905;SDS011;9585;51.018;4.282;2022-12-07T13:57:16;3.45;;;1.80;;
18905;SDS011;9585;51.018;4.282;2022-12-07T13:59:44;2.05;;;1.88;;
18905;SDS011;9585;51.018;4.282;2022-12-07T14:02:18;1.95;;;1.42;;
18905;SDS011;9585;51.018;4.282;2022-12-07T14:04:47;3.38;;;2.47;;
18905;SDS011;9585;51.018;4.282;2022-12-07T14:07:23;2.85;;;2.13;;
18905;SDS011;9585;51.018;4.282;2022-12-07T14:09:56;2.25;;;1.80;;
18905;SDS011;9585;51.018;4.282;2022-12-07T14:12:28;2.00;;;1.58;;
18905;SDS011;9585;51.018;4.282;2022-12-07T14:14:57;3.00;;;1.40;;
18905;SDS011;9585;51.018;4.282;2022-12-07T14:17:29;2.40;;;1.50;;
18905;SDS011;9585;51.018;4.282;2022-12-07T14:19:56;2.10;;;1.30;;
18905;SDS011;9585;51.018;4.282;2022-12-07T14:22:26;1.85;;;1.50;;
18905;SDS011;9585;51.018;4.282;2022-12-07T14:25:13;3.25;;;1.77;;
18905;SDS011;9585;51.018;4.282;2022-12-07T14:27:51;2.17;;;1.75;;
18905;SDS011;9585;51.018;4.282;2022-12-07T14:30:21;2.50;;;1.90;;
18905;SDS011;9585;51.018;4.282;2022-12-07T14:32:51;2.45;;;1.60;;
18905;SDS011;9585;51.018;4.282;2022-12-07T14:35:20;3.17;;;1.40;;
18905;SDS011;9585;51.018;4.282;2022-12-07T14:37:48;13.43;;;7.35;;
18905;SDS011;9585;51.018;4.282;2022-12-07T14:40:17;3.47;;;1.70;;
18905;SDS011;9585;51.018;4.282;2022-12-07T14:42:45;3.13;;;1.45;;
18905;SDS011;9585;51.018;4.282;2022-12-07T14:45:17;2.45;;;1.20;;
18905;SDS011;9585;51.018;4.282;2022-12-07T14:47:46;2.90;;;1.60;;
18905;SDS011;9585;51.018;4.282;2022-12-07T14:50:15;2.53;;;1.30;;
18905;SDS011;9585;51.018;4.282;2022-12-07T14:52:45;2.60;;;1.38;;
18905;SDS011;9585;51.018;4.282;2022-12-07T14:55:17;1.88;;;1.13;;
18905;SDS011;9585;51.018;4.282;2022-12-07T14:57:50;2.90;;;1.20;;
18905;SDS011;9585;51.018;4.282;2022-12-07T15:00:20;1.35;;;0.98;;
18905;SDS011;9585;51.018;4.282;2022-12-07T15:02:49;2.75;;;1.10;;
18905;SDS011;9585;51.018;4.282;2022-12-07T15:05:17;1.90;;;1.10;;
18905;SDS011;9585;51.018;4.282;2022-12-07T15:07:45;2.00;;;1.10;;
18905;SDS011;9585;51.018;4.282;2022-12-07T15:10:14;3.33;;;1.80;;
18905;SDS011;9585;51.018;4.282;2022-12-07T15:12:44;3.05;;;1.70;;
18905;SDS011;9585;51.018;4.282;2022-12-07T15:15:12;3.63;;;1.27;;
18905;SDS011;9585;51.018;4.282;2022-12-07T15:17:41;2.45;;;1.40;;
18905;SDS011;9585;51.018;4.282;2022-12-07T15:20:10;3.35;;;1.58;;
18905;SDS011;9585;51.018;4.282;2022-12-07T15:22:39;4.30;;;2.70;;
18905;SDS011;9585;51.018;4.282;2022-12-07T15:25:07;4.50;;;2.10;;
18905;SDS011;9585;51.018;4.282;2022-12-07T15:27:35;3.22;;;1.73;;
18905;SDS011;9585;51.018;4.282;2022-12-07T15:30:03;2.65;;;1.55;;
18905;SDS011;9585;51.018;4.282;2022-12-07T15:32:31;3.95;;;1.75;;
18905;SDS011;9585;51.018;4.282;2022-12-07T15:34:59;4.80;;;1.52;;
18905;SDS011;9585;51.018;4.282;2022-12-07T15:37:27;2.05;;;1.40;;
18905;SDS011;9585;51.018;4.282;2022-12-07T15:39:54;3.25;;;1.60;;
18905;SDS011;9585;51.018;4.282;2022-12-07T15:42:21;2.95;;;1.50;;
18905;SDS011;9585;51.018;4.282;2022-12-07T15:44:49;2.03;;;1.65;;
18905;SDS011;9585;51.018;4.282;2022-12-07T15:47:30;3.75;;;1.90;;
18905;SDS011;9585;51.018;4.282;2022-12-07T15:49:59;3.53;;;2.10;;
18905;SDS011;9585;51.018;4.282;2022-12-07T15:52:27;3.13;;;2.00;;
18905;SDS011;9585;51.018;4.282;2022-12-07T15:54:55;1.63;;;1.45;;
18905;SDS011;9585;51.018;4.282;2022-12-07T15:57:22;2.70;;;1.88;;
18905;SDS011;9585;51.018;4.282;2022-12-07T15:59:49;1.80;;;1.60;;
18905;SDS011;9585;51.018;4.282;2022-12-07T16:02:16;2.28;;;1.58;;
18905;SDS011;9585;51.018;4.282;2022-12-07T16:04:44;2.65;;;1.90;;
18905;SDS011;9585;51.018;4.282;2022-12-07T16:07:13;3.08;;;2.03;;
18905;SDS011;9585;51.018;4.282;2022-12-07T16:09:40;9.02;;;5.90;;
18905;SDS011;9585;51.018;4.282;2022-12-07T16:12:08;8.98;;;5.65;;
18905;SDS011;9585;51.018;4.282;2022-12-07T16:14:36;5.78;;;4.28;;
18905;SDS011;9585;51.018;4.282;2022-12-07T16:17:04;7.13;;;6.53;;
18905;SDS011;9585;51.018;4.282;2022-12-07T16:19:31;3.95;;;3.55;;